Ripley, Canada
Current Conditions -  °F | °C
As of 7:00 AM on Saturday 20 Dec 2014 (Local Time) from CYVV Reporting Station
Few Clouds Few Clouds  
Wind Chill: 16°   Ceiling: Unl
Heat Index: 16°   Visibility: 15mi
Dew Point: 16°   Wind: 2mph
Humidity: 100%   Direction: NA
Pressure: 30.28"   Gusts: NA
Location:  44.07°N, 81.58°W
Report Text: CYVV 201200Z VRB02KT 15SM FEW120 M09/M09 A3028 RMK AC1 FROIN SUNSHINE 2.8 SLP268
Loading
Personal Weather Stations






























Interactive Weather Map New forecast layout! Learn more

10-Day Weather Forecast

Advertisements
Track Severe Weather on mobile